createdAt,value
2023-02-22T00:01:35.107Z,97025.11
2023-02-22T00:04:07.448Z,97025.77
2023-02-22T00:06:36.753Z,97027.43
2023-02-22T00:09:07.787Z,97033.97
2023-02-22T00:11:36.588Z,97036.59
2023-02-22T00:14:05.982Z,97035.70
2023-02-22T00:16:35.270Z,97037.44
2023-02-22T00:19:06.320Z,97038.52
2023-02-22T00:21:35.013Z,97039.69
2023-02-22T00:24:23.572Z,97040.96
2023-02-22T00:26:56.867Z,97039.13
2023-02-22T00:29:26.325Z,97034.38
2023-02-22T00:31:56.054Z,97040.98
2023-02-22T00:34:26.199Z,97039.75
2023-02-22T00:36:54.868Z,97040.14
2023-02-22T00:39:24.232Z,97038.52
2023-02-22T00:41:54.622Z,97040.66
2023-02-22T00:44:24.107Z,97043.59
2023-02-22T00:46:53.412Z,97044.67
2023-02-22T00:49:24.859Z,97042.95
2023-02-22T00:51:55.900Z,97041.63
2023-02-22T00:54:24.785Z,97038.66
2023-02-22T00:56:53.681Z,97037.29
2023-02-22T00:59:22.571Z,97033.36
2023-02-22T01:01:53.324Z,97034.88
2023-02-22T01:04:23.551Z,97032.85
2023-02-22T01:06:54.390Z,97034.75
2023-02-22T01:09:23.450Z,97040.11
2023-02-22T01:11:57.599Z,97035.53
2023-02-22T01:14:29.169Z,97034.93
2023-02-22T01:16:58.648Z,97036.41
2023-02-22T01:19:27.623Z,97033.75
2023-02-22T01:21:58.005Z,97039.28
2023-02-22T01:24:27.354Z,97035.84
2023-02-22T01:26:56.854Z,97037.63
2023-02-22T01:29:26.151Z,97039.14
2023-02-22T01:31:56.858Z,97036.78
2023-02-22T01:34:26.669Z,97034.85
2023-02-22T01:36:58.670Z,97035.08
2023-02-22T01:39:28.225Z,97031.25
2023-02-22T01:41:58.717Z,97031.45
2023-02-22T01:44:36.054Z,97034.29
2023-02-22T01:47:07.212Z,97031.79
2023-02-22T01:49:47.484Z,97037.91
2023-02-22T01:52:21.535Z,97041.36
2023-02-22T01:54:58.603Z,97038.12
2023-02-22T01:57:34.844Z,97038.44
2023-02-22T02:00:15.169Z,97038.43
2023-02-22T02:02:54.795Z,97045.06
2023-02-22T02:05:32.278Z,97043.81
2023-02-22T02:08:15.720Z,97041.86
2023-02-22T02:10:45.707Z,97043.94
2023-02-22T02:13:17.032Z,97049.23
2023-02-22T02:15:50.324Z,97044.82
2023-02-22T02:18:21.207Z,97047.92
2023-02-22T02:21:02.932Z,97048.21
2023-02-22T02:23:32.894Z,97049.90
2023-02-22T02:26:28.294Z,97049.66
2023-02-22T02:29:33.127Z,97051.55
2023-02-22T02:32:15.612Z,97048.61
2023-02-22T02:34:51.802Z,97053.33
2023-02-22T02:37:37.986Z,97055.83
2023-02-22T02:40:14.280Z,97053.05
2023-02-22T02:42:51.359Z,97049.79
2023-02-22T02:45:30.583Z,97052.93
2023-02-22T02:48:04.238Z,97055.33
2023-02-22T02:50:42.622Z,97059.31
2023-02-22T02:53:14.857Z,97058.57
2023-02-22T02:55:44.744Z,97061.59
2023-02-22T02:58:22.183Z,97059.30
2023-02-22T03:01:01.937Z,97056.58
2023-02-22T03:03:50.780Z,97060.63
2023-02-22T03:06:41.701Z,97061.70
2023-02-22T03:09:23.305Z,97066.86
2023-02-22T03:12:09.429Z,97069.38
2023-02-22T03:15:23.366Z,97071.54
2023-02-22T03:18:18.611Z,97073.37
2023-02-22T03:21:08.778Z,97072.46
2023-02-22T03:23:44.108Z,97071.46
2023-02-22T03:26:26.476Z,97070.61
2023-02-22T03:29:00.288Z,97074.02
2023-02-22T03:31:37.804Z,97075.60
2023-02-22T03:34:17.550Z,97081.83
2023-02-22T03:37:02.097Z,97080.09
2023-02-22T03:39:35.067Z,97084.11
2023-02-22T03:42:15.606Z,97088.52
2023-02-22T03:44:48.247Z,97088.09
2023-02-22T03:47:31.277Z,97091.63
2023-02-22T03:50:08.371Z,97092.34
2023-02-22T03:52:39.511Z,97091.58
2023-02-22T03:55:19.559Z,97087.85
2023-02-22T03:57:56.257Z,97090.39
2023-02-22T04:00:30.842Z,97096.14
2023-02-22T04:03:01.210Z,97096.19
2023-02-22T04:05:32.125Z,97095.73
2023-02-22T04:08:02.668Z,97100.70
2023-02-22T04:10:34.827Z,97100.78
2023-02-22T04:13:09.175Z,97103.73
2023-02-22T04:15:43.089Z,97096.96
2023-02-22T04:18:14.599Z,97101.67
2023-02-22T04:20:45.493Z,97100.88
2023-02-22T04:23:25.116Z,97101.86
2023-02-22T04:25:55.900Z,97104.79
2023-02-22T04:28:25.414Z,97105.52
2023-02-22T04:31:17.810Z,97112.68
2023-02-22T04:33:48.952Z,97111.45
2023-02-22T04:36:22.476Z,97111.27
2023-02-22T04:38:52.643Z,97108.17
2023-02-22T04:41:25.379Z,97107.17
2023-02-22T04:43:56.147Z,97107.72
2023-02-22T04:46:28.350Z,97107.27
2023-02-22T04:48:58.491Z,97105.05
2023-02-22T04:51:30.891Z,97103.36
2023-02-22T04:54:03.572Z,97105.58
2023-02-22T04:56:35.904Z,97112.84
2023-02-22T04:59:06.243Z,97113.88
2023-02-22T05:01:37.119Z,97117.94
2023-02-22T05:04:07.709Z,97122.17
2023-02-22T05:06:37.760Z,97124.58
2023-02-22T05:09:07.049Z,97130.10
2023-02-22T05:11:36.751Z,97135.98
2023-02-22T05:14:05.988Z,97133.05
2023-02-22T05:16:36.590Z,97131.61
2023-02-22T05:19:06.047Z,97127.53
2023-02-22T05:21:35.190Z,97122.48
2023-02-22T05:24:04.627Z,97122.28
2023-02-22T05:26:33.524Z,97129.55
2023-02-22T05:29:02.788Z,97138.95
2023-02-22T05:31:33.273Z,97144.30
2023-02-22T05:34:02.078Z,97148.94
2023-02-22T05:36:31.377Z,97154.13
2023-02-22T05:39:00.616Z,97155.20
2023-02-22T05:41:30.024Z,97159.53
2023-02-22T05:43:59.920Z,97156.14
2023-02-22T05:46:28.728Z,97162.58
2023-02-22T05:48:58.184Z,97166.48
2023-02-22T05:51:27.401Z,97169.77
2023-02-22T05:53:56.286Z,97174.27
2023-02-22T05:56:28.288Z,97179.23
2023-02-22T05:58:58.708Z,97178.71
2023-02-22T06:01:27.895Z,97179.75
2023-02-22T06:03:56.643Z,97184.64
2023-02-22T06:06:25.440Z,97188.70
2023-02-22T06:08:54.930Z,97188.27
2023-02-22T06:11:23.924Z,97186.17
2023-02-22T06:13:53.950Z,97189.92
2023-02-22T06:16:24.066Z,97195.97
2023-02-22T06:18:52.861Z,97196.49
2023-02-22T06:21:22.246Z,97198.74
2023-02-22T06:23:51.359Z,97199.02
2023-02-22T06:26:20.434Z,97204.23
2023-02-22T06:28:49.738Z,97214.71
2023-02-22T06:31:18.698Z,97220.55
2023-02-22T06:33:47.722Z,97224.31
2023-02-22T06:36:16.529Z,97227.08
2023-02-22T06:38:45.716Z,97229.67
2023-02-22T06:41:16.074Z,97232.45
2023-02-22T06:43:48.093Z,97235.73
2023-02-22T06:46:17.085Z,97241.76
2023-02-22T06:48:45.676Z,97238.88
2023-02-22T06:51:14.637Z,97233.31
2023-02-22T06:53:43.967Z,97234.76
2023-02-22T06:56:12.657Z,97239.98
2023-02-22T06:58:42.466Z,97240.37
2023-02-22T07:01:11.383Z,97236.94
2023-02-22T07:03:40.364Z,97240.69
2023-02-22T07:06:09.233Z,97244.07
2023-02-22T07:08:37.932Z,97241.91
2023-02-22T07:11:06.516Z,97243.36
2023-02-22T07:13:35.703Z,97245.23
2023-02-22T07:16:04.934Z,97246.10
2023-02-22T07:18:33.697Z,97243.38
2023-02-22T07:21:02.377Z,97244.02
2023-02-22T07:23:31.166Z,97247.16
2023-02-22T07:26:05.798Z,97242.02
2023-02-22T07:28:34.475Z,97246.33
2023-02-22T07:31:05.227Z,97253.69
2023-02-22T07:33:33.896Z,97259.52
2023-02-22T07:36:02.787Z,97260.35
2023-02-22T07:38:32.911Z,97263.16
2023-02-22T07:41:02.525Z,97261.91
2023-02-22T07:43:31.863Z,97265.73
2023-02-22T07:46:03.319Z,97266.95
2023-02-22T07:48:32.491Z,97264.43
2023-02-22T07:51:01.456Z,97266.51
2023-02-22T07:53:33.707Z,97266.66
2023-02-22T07:56:05.700Z,97267.45
2023-02-22T07:58:35.601Z,97267.27
2023-02-22T08:01:05.202Z,97265.45
2023-02-22T08:03:37.056Z,97266.47
2023-02-22T08:06:07.701Z,97266.66
2023-02-22T08:08:36.415Z,97271.52
2023-02-22T08:11:06.192Z,97272.24
2023-02-22T08:13:35.185Z,97272.86
2023-02-22T08:16:03.981Z,97277.65
2023-02-22T08:18:32.875Z,97275.39
2023-02-22T08:21:01.654Z,97273.08
2023-02-22T08:23:30.747Z,97272.02
2023-02-22T08:26:09.614Z,97274.55
2023-02-22T08:28:38.151Z,97281.64
2023-02-22T08:31:09.087Z,97284.16
2023-02-22T08:33:37.993Z,97281.61
2023-02-22T08:36:07.204Z,97284.13
2023-02-22T08:38:35.766Z,97284.11
2023-02-22T08:41:04.978Z,97282.92
2023-02-22T08:43:33.741Z,97284.64
2023-02-22T08:46:02.264Z,97289.53
2023-02-22T08:48:30.912Z,97288.23
2023-02-22T08:50:59.695Z,97289.24
2023-02-22T08:53:28.285Z,97289.02
2023-02-22T08:55:57.174Z,97288.34
2023-02-22T08:58:25.852Z,97288.69
2023-02-22T09:00:54.543Z,97290.63
2023-02-22T09:03:23.243Z,97294.58
2023-02-22T09:05:52.462Z,97291.62
2023-02-22T09:08:21.767Z,97290.70
2023-02-22T09:10:51.331Z,97293.01
2023-02-22T09:13:20.118Z,97294.52
2023-02-22T09:15:48.800Z,97294.52
2023-02-22T09:18:18.712Z,97295.56
2023-02-22T09:20:47.923Z,97296.73
2023-02-22T09:23:16.806Z,97294.10
2023-02-22T09:25:45.700Z,97295.20
2023-02-22T09:28:14.886Z,97296.96
2023-02-22T09:30:44.025Z,97297.08
2023-02-22T09:33:19.254Z,97302.02
2023-02-22T09:35:50.290Z,97301.09
2023-02-22T09:38:24.919Z,97306.92
2023-02-22T09:41:01.539Z,97304.83
2023-02-22T09:43:33.123Z,97304.41
2023-02-22T09:46:19.900Z,97305.68
2023-02-22T09:49:07.264Z,97300.87
2023-02-22T09:51:51.092Z,97297.31
2023-02-22T09:54:36.670Z,97296.41
2023-02-22T09:57:09.498Z,97296.37
2023-02-22T09:59:48.808Z,97295.18
2023-02-22T10:02:38.817Z,97291.38
2023-02-22T10:05:34.651Z,97292.41
2023-02-22T10:08:06.370Z,97287.50
2023-02-22T10:10:41.456Z,97289.69
2023-02-22T10:13:28.200Z,97292.09
2023-02-22T10:16:00.161Z,97288.28
2023-02-22T10:18:46.876Z,97286.44
2023-02-22T10:21:39.925Z,97285.95
2023-02-22T10:25:01.245Z,97284.16
2023-02-22T10:27:43.148Z,97278.89
2023-02-22T10:30:44.019Z,97273.30
2023-02-22T10:33:27.512Z,97272.29
2023-02-22T10:35:56.726Z,97273.43
2023-02-22T10:38:28.241Z,97272.55
2023-02-22T10:41:02.283Z,97269.27
2023-02-22T10:43:31.474Z,97265.50
2023-02-22T10:46:07.417Z,97266.13
2023-02-22T10:48:39.720Z,97268.58
2023-02-22T10:51:10.865Z,97265.70
2023-02-22T10:53:40.463Z,97261.50
2023-02-22T10:56:13.256Z,97261.19
2023-02-22T10:58:50.530Z,97264.56
2023-02-22T11:01:31.342Z,97258.70
2023-02-22T11:04:05.918Z,97255.89
2023-02-22T11:06:36.241Z,97252.82
2023-02-22T11:09:06.150Z,97253.39
2023-02-22T11:11:35.041Z,97259.77
2023-02-22T11:14:06.076Z,97254.85
2023-02-22T11:16:38.545Z,97252.27
2023-02-22T11:19:16.366Z,97250.33
2023-02-22T11:21:45.550Z,97246.23
2023-02-22T11:26:46.713Z,97247.86
2023-02-22T11:29:32.701Z,97244.52
2023-02-22T11:32:24.925Z,97241.24
2023-02-22T11:35:13.692Z,97246.65
2023-02-22T11:37:42.786Z,97245.48
2023-02-22T11:40:22.625Z,97245.31
2023-02-22T11:43:15.087Z,97241.43
2023-02-22T11:46:06.162Z,97240.52
2023-02-22T11:48:41.999Z,97238.48
2023-02-22T11:51:22.210Z,97236.45
2023-02-22T11:54:04.081Z,97238.40
2023-02-22T11:56:46.200Z,97233.02
2023-02-22T11:59:48.685Z,97236.65
2023-02-22T12:02:56.402Z,97229.27
2023-02-22T12:05:40.754Z,97226.98
2023-02-22T12:08:55.306Z,97227.80
2023-02-22T12:11:33.594Z,97226.94
2023-02-22T12:14:08.534Z,97221.27
2023-02-22T12:16:44.588Z,97219.47
2023-02-22T12:19:28.629Z,97214.97
2023-02-22T12:22:02.740Z,97214.21
2023-02-22T12:24:38.555Z,97208.13
2023-02-22T12:27:10.062Z,97206.19
2023-02-22T12:30:00.850Z,97209.81
2023-02-22T12:32:41.954Z,97208.55
2023-02-22T12:35:11.236Z,97204.43
2023-02-22T12:37:53.535Z,97207.79
2023-02-22T12:40:35.816Z,97207.09
2023-02-22T12:43:22.881Z,97205.95
2023-02-22T12:46:19.720Z,97202.70
2023-02-22T12:48:59.242Z,97209.54
2023-02-22T12:51:54.271Z,97209.04
2023-02-22T12:54:48.431Z,97207.27
2023-02-22T12:57:44.781Z,97206.76
2023-02-22T13:00:26.689Z,97205.15
2023-02-22T13:03:07.322Z,97202.17
2023-02-22T13:05:39.953Z,97200.71
2023-02-22T13:08:34.598Z,97198.05
2023-02-22T13:11:18.630Z,97195.60
2023-02-22T13:13:55.930Z,97196.54
2023-02-22T13:16:35.477Z,97192.40
2023-02-22T13:19:08.354Z,97193.68
2023-02-22T13:21:52.602Z,97184.64
2023-02-22T13:24:53.039Z,97189.80
2023-02-22T13:27:40.660Z,97191.69
2023-02-22T13:30:31.381Z,97190.73
2023-02-22T13:33:21.752Z,97193.20
2023-02-22T13:36:32.424Z,97193.86
2023-02-22T13:39:13.199Z,97193.55
2023-02-22T13:42:04.931Z,97193.77
2023-02-22T13:44:48.865Z,97195.02
2023-02-22T13:47:42.231Z,97191.83
2023-02-22T13:50:29.141Z,97196.39
2023-02-22T13:52:59.989Z,97196.98
2023-02-22T13:55:33.472Z,97199.07
2023-02-22T13:58:06.149Z,97196.50
2023-02-22T14:00:48.555Z,97190.73
2023-02-22T14:03:41.374Z,97188.67
2023-02-22T14:06:32.214Z,97189.81
2023-02-22T14:09:07.860Z,97190.94
2023-02-22T14:11:36.553Z,97188.23
2023-02-22T14:14:08.099Z,97187.61
2023-02-22T14:16:37.942Z,97184.99
2023-02-22T14:19:09.685Z,97183.95
2023-02-22T14:21:56.251Z,97181.78
2023-02-22T14:24:25.276Z,97181.79
2023-02-22T14:27:04.510Z,97182.30
2023-02-22T14:29:33.397Z,97183.41
2023-02-22T14:32:11.316Z,97184.22
2023-02-22T14:34:58.368Z,97185.73
2023-02-22T14:37:32.529Z,97186.02
2023-02-22T14:40:28.132Z,97186.67
2023-02-22T14:43:09.803Z,97188.45
2023-02-22T14:45:48.971Z,97189.05
2023-02-22T14:48:44.278Z,97189.48
2023-02-22T14:51:31.915Z,97188.31
2023-02-22T14:54:25.872Z,97182.06
2023-02-22T14:56:56.917Z,97181.30
2023-02-22T14:59:28.297Z,97181.73
2023-02-22T15:02:13.218Z,97180.05
2023-02-22T15:04:45.053Z,97183.77
2023-02-22T15:07:36.103Z,97179.02
2023-02-22T15:10:28.031Z,97178.56
2023-02-22T15:13:09.839Z,97185.84
2023-02-22T15:15:43.974Z,97185.80
2023-02-22T15:18:22.862Z,97183.73
2023-02-22T15:20:56.598Z,97185.83
2023-02-22T15:23:30.543Z,97182.18
2023-02-22T15:25:59.163Z,97185.14
2023-02-22T15:28:31.363Z,97181.91
2023-02-22T15:31:25.680Z,97185.02
2023-02-22T15:33:55.740Z,97183.55
2023-02-22T15:36:31.592Z,97182.27
2023-02-22T15:39:00.386Z,97187.81
2023-02-22T15:41:34.206Z,97193.48
2023-02-22T15:44:23.130Z,97193.62
2023-02-22T15:46:55.524Z,97193.25
2023-02-22T15:49:26.059Z,97202.61
2023-02-22T15:52:20.746Z,97203.75
2023-02-22T15:54:53.736Z,97204.98
2023-02-22T15:57:25.807Z,97202.81
2023-02-22T15:59:57.757Z,97207.83
2023-02-22T16:02:35.195Z,97212.92
2023-02-22T16:05:32.603Z,97213.10
2023-02-22T16:08:01.395Z,97219.54
2023-02-22T16:10:35.923Z,97215.50
2023-02-22T16:13:09.123Z,97217.29
2023-02-22T16:15:38.714Z,97222.58
2023-02-22T16:18:30.469Z,97225.97
2023-02-22T16:21:06.730Z,97225.44
2023-02-22T16:23:47.377Z,97234.06
2023-02-22T16:26:27.429Z,97234.77
2023-02-22T16:29:00.513Z,97239.70
2023-02-22T16:31:34.021Z,97241.45
2023-02-22T16:34:05.942Z,97243.27
2023-02-22T16:36:44.489Z,97243.25
2023-02-22T16:39:27.498Z,97241.56
2023-02-22T16:42:10.433Z,97243.97
2023-02-22T16:44:39.112Z,97252.00
2023-02-22T16:47:11.214Z,97253.88
2023-02-22T16:49:39.868Z,97258.86
2023-02-22T16:52:09.061Z,97265.33
2023-02-22T16:54:45.477Z,97265.41
2023-02-22T16:57:23.051Z,97272.33
2023-02-22T16:59:53.120Z,97277.73
2023-02-22T17:02:22.134Z,97275.38
2023-02-22T17:04:51.325Z,97274.85
2023-02-22T17:07:24.333Z,97275.89
2023-02-22T17:09:53.008Z,97278.30
2023-02-22T17:12:22.675Z,97277.34
2023-02-22T17:14:52.002Z,97277.20
2023-02-22T17:17:20.799Z,97275.25
2023-02-22T17:19:49.378Z,97271.21
2023-02-22T17:22:21.258Z,97272.27
2023-02-22T17:24:49.644Z,97269.31
2023-02-22T17:27:18.403Z,97275.02
2023-02-22T17:29:48.211Z,97277.78
2023-02-22T17:32:16.952Z,97276.38
2023-02-22T17:34:46.514Z,97274.85
2023-02-22T17:37:15.194Z,97272.98
2023-02-22T17:39:43.775Z,97268.89
2023-02-22T17:42:15.851Z,97273.67
2023-02-22T17:44:44.425Z,97275.77
2023-02-22T17:47:12.910Z,97274.15
2023-02-22T17:49:41.404Z,97274.75
2023-02-22T17:52:10.078Z,97274.69
2023-02-22T17:54:39.476Z,97273.29
2023-02-22T17:57:08.058Z,97274.08
2023-02-22T17:59:36.650Z,97275.27
2023-02-22T18:02:05.669Z,97274.02
2023-02-22T18:04:37.028Z,97275.85
2023-02-22T18:07:05.602Z,97275.16
2023-02-22T18:09:38.209Z,97269.71
2023-02-22T18:12:07.043Z,97270.77
2023-02-22T18:14:35.613Z,97267.25
2023-02-22T18:17:05.118Z,97268.80
2023-02-22T18:19:33.642Z,97268.09
2023-02-22T18:22:03.315Z,97268.89
2023-02-22T18:24:34.472Z,97267.70
2023-02-22T18:27:06.311Z,97267.07
2023-02-22T18:29:35.004Z,97262.84
2023-02-22T18:32:04.373Z,97264.65
2023-02-22T18:34:33.903Z,97265.55
2023-02-22T18:37:02.487Z,97263.90
2023-02-22T18:39:35.085Z,97267.66
2023-02-22T18:42:03.954Z,97268.13
2023-02-22T18:44:32.754Z,97266.42
2023-02-22T18:47:01.938Z,97259.65
2023-02-22T18:49:30.418Z,97264.15
2023-02-22T18:51:59.929Z,97263.17
2023-02-22T18:54:28.606Z,97268.79
2023-02-22T18:56:57.193Z,97269.34
2023-02-22T18:59:26.494Z,97271.19
2023-02-22T19:01:55.048Z,97272.97
2023-02-22T19:04:25.519Z,97276.92
2023-02-22T19:06:54.492Z,97280.53
2023-02-22T19:09:22.979Z,97275.54
2023-02-22T19:11:56.073Z,97277.17
2023-02-22T19:14:24.551Z,97280.45
2023-02-22T19:16:53.237Z,97278.15
2023-02-22T19:19:22.739Z,97281.11
2023-02-22T19:21:52.344Z,97279.89
2023-02-22T19:24:21.033Z,97286.73
2023-02-22T19:26:53.980Z,97289.02
2023-02-22T19:29:24.031Z,97288.96
2023-02-22T19:31:54.069Z,97292.83
2023-02-22T19:34:24.942Z,97290.23
2023-02-22T19:36:53.572Z,97287.20
2023-02-22T19:41:52.678Z,97287.92
2023-02-22T19:44:21.571Z,97288.61
2023-02-22T19:46:51.179Z,97291.20
2023-02-22T19:49:19.863Z,97294.33
2023-02-22T19:51:48.450Z,97296.77
2023-02-22T19:54:19.803Z,97291.81
2023-02-22T19:56:51.761Z,97297.73
2023-02-22T19:59:23.826Z,97297.27
2023-02-22T20:01:54.845Z,97304.88
2023-02-22T20:04:24.709Z,97311.58
2023-02-22T20:06:54.865Z,97314.02
2023-02-22T20:09:43.447Z,97315.96
2023-02-22T20:12:12.033Z,97320.66
2023-02-22T20:14:40.614Z,97321.95
2023-02-22T20:17:10.636Z,97319.94
2023-02-22T20:19:40.861Z,97323.67
2023-02-22T20:22:10.268Z,97323.65
2023-02-22T20:24:38.838Z,97327.22
2023-02-22T20:27:10.085Z,97327.99
2023-02-22T20:29:38.674Z,97328.06
2023-02-22T20:32:12.064Z,97325.05
2023-02-22T20:34:45.064Z,97319.79
2023-02-22T20:37:14.859Z,97324.98
2023-02-22T20:39:44.567Z,97329.04
2023-02-22T20:42:15.815Z,97327.23
2023-02-22T20:44:45.426Z,97327.66
2023-02-22T20:47:13.909Z,97329.38
2023-02-22T20:49:42.482Z,97326.88
2023-02-22T20:52:11.074Z,97332.59
2023-02-22T20:54:39.561Z,97332.38
2023-02-22T20:57:08.442Z,97332.27
2023-02-22T20:59:37.140Z,97332.84
2023-02-22T21:02:06.635Z,97335.98
2023-02-22T21:04:35.485Z,97332.56
2023-02-22T21:07:04.220Z,97329.91
2023-02-22T21:09:34.125Z,97329.09
2023-02-22T21:12:03.013Z,97326.16
2023-02-22T21:14:32.826Z,97328.05
2023-02-22T21:17:04.316Z,97326.63
2023-02-22T21:19:33.739Z,97326.98
2023-02-22T21:22:08.515Z,97330.58
2023-02-22T21:24:37.403Z,97333.52
2023-02-22T21:27:07.220Z,97331.63
2023-02-22T21:29:36.721Z,97331.80
2023-02-22T21:32:05.971Z,97330.44
2023-02-22T21:34:35.560Z,97329.61
2023-02-22T21:37:08.397Z,97324.05
2023-02-22T21:39:37.311Z,97327.38
2023-02-22T21:42:07.617Z,97326.37
2023-02-22T21:44:36.618Z,97320.96
2023-02-22T21:47:05.610Z,97322.92
2023-02-22T21:49:34.099Z,97322.31
2023-02-22T21:52:04.628Z,97321.48
2023-02-22T21:54:33.309Z,97322.48
2023-02-22T21:57:02.199Z,97319.88
2023-02-22T21:59:30.983Z,97317.42
2023-02-22T22:01:59.669Z,97310.34
2023-02-22T22:04:30.300Z,97310.63
2023-02-22T22:07:01.810Z,97311.44
2023-02-22T22:09:37.609Z,97314.05
2023-02-22T22:12:07.217Z,97316.18
2023-02-22T22:14:37.140Z,97320.71
2023-02-22T22:17:08.282Z,97319.32
2023-02-22T22:19:39.555Z,97323.13
2023-02-22T22:22:08.601Z,97320.95
2023-02-22T22:24:38.263Z,97324.75
2023-02-22T22:27:10.171Z,97330.16
2023-02-22T22:29:39.266Z,97327.70
2023-02-22T22:32:09.329Z,97331.52
2023-02-22T22:34:38.378Z,97328.76
2023-02-22T22:37:08.000Z,97325.61
2023-02-22T22:39:36.876Z,97323.05
2023-02-22T22:42:05.873Z,97320.36
2023-02-22T22:44:42.647Z,97317.05
2023-02-22T22:47:14.402Z,97322.19
2023-02-22T22:49:43.096Z,97322.45
2023-02-22T22:52:14.190Z,97326.48
2023-02-22T22:54:44.040Z,97327.02
2023-02-22T22:57:12.831Z,97325.02
2023-02-22T22:59:41.832Z,97326.80
2023-02-22T23:02:11.836Z,97329.59
2023-02-22T23:04:40.756Z,97333.42
2023-02-22T23:07:09.519Z,97330.36
2023-02-22T23:09:39.776Z,97330.63
2023-02-22T23:12:18.150Z,97331.11
2023-02-22T23:14:47.392Z,97331.17
2023-02-22T23:17:31.200Z,97327.92
2023-02-22T23:20:00.426Z,97330.73
2023-02-22T23:22:29.380Z,97336.56
2023-02-22T23:25:00.631Z,97336.52
2023-02-22T23:27:29.732Z,97334.13
2023-02-22T23:29:59.636Z,97331.25
2023-02-22T23:32:28.680Z,97333.05
2023-02-22T23:34:57.634Z,97333.44
2023-02-22T23:37:26.309Z,97333.33
2023-02-22T23:39:55.215Z,97335.09
2023-02-22T23:42:24.493Z,97331.33
2023-02-22T23:44:54.273Z,97329.44
2023-02-22T23:47:23.320Z,97331.59
2023-02-22T23:49:52.100Z,97333.58
2023-02-22T23:52:24.654Z,97330.21
2023-02-22T23:54:54.314Z,97332.79
2023-02-22T23:57:24.812Z,97332.29
2023-02-22T23:59:53.306Z,97337.38
